sensor_id;sensor_type;location;lat;lon;timestamp;pressure;altitude;pressure_sealevel;temperature;humidity
41467;BME280;72625;53.700;19.958;2024-03-02T00:02:18;99882.91;;;8.97;79.42
41467;BME280;72625;53.700;19.958;2024-03-02T00:07:22;99883.30;;;8.99;79.82
41467;BME280;72625;53.700;19.958;2024-03-02T00:12:28;99876.34;;;8.96;79.49
41467;BME280;72625;53.700;19.958;2024-03-02T00:17:32;99870.30;;;8.93;80.17
41467;BME280;72625;53.700;19.958;2024-03-02T00:22:36;99872.23;;;8.88;79.92
41467;BME280;72625;53.700;19.958;2024-03-02T00:27:40;99872.54;;;8.88;80.07
41467;BME280;72625;53.700;19.958;2024-03-02T00:32:44;99872.04;;;8.89;80.01
41467;BME280;72625;53.700;19.958;2024-03-02T00:37:48;99863.39;;;8.84;80.25
41467;BME280;72625;53.700;19.958;2024-03-02T00:42:51;99863.33;;;8.84;80.37
41467;BME280;72625;53.700;19.958;2024-03-02T00:47:55;99860.03;;;8.80;80.18
41467;BME280;72625;53.700;19.958;2024-03-02T00:53:02;99863.92;;;8.78;80.43
41467;BME280;72625;53.700;19.958;2024-03-02T00:58:06;99857.88;;;8.76;80.44
41467;BME280;72625;53.700;19.958;2024-03-02T01:03:09;99854.89;;;8.74;80.69
41467;BME280;72625;53.700;19.958;2024-03-02T01:08:14;99854.00;;;8.73;80.84
41467;BME280;72625;53.700;19.958;2024-03-02T01:13:18;99858.20;;;8.74;80.92
41467;BME280;72625;53.700;19.958;2024-03-02T01:18:22;99841.66;;;8.71;81.07
41467;BME280;72625;53.700;19.958;2024-03-02T01:23:25;99832.20;;;8.68;81.21
41467;BME280;72625;53.700;19.958;2024-03-02T01:28:38;99823.79;;;8.63;81.75
41467;BME280;72625;53.700;19.958;2024-03-02T01:33:42;99820.43;;;8.59;81.44
41467;BME280;72625;53.700;19.958;2024-03-02T01:38:46;99824.65;;;8.56;81.91
41467;BME280;72625;53.700;19.958;2024-03-02T01:43:50;99818.86;;;8.56;81.78
41467;BME280;72625;53.700;19.958;2024-03-02T01:48:53;99827.59;;;8.60;81.54
41467;BME280;72625;53.700;19.958;2024-03-02T01:53:57;99828.13;;;8.63;81.30
41467;BME280;72625;53.700;19.958;2024-03-02T01:59:03;99830.80;;;8.63;81.35
41467;BME280;72625;53.700;19.958;2024-03-02T02:04:10;99829.52;;;8.61;81.68
41467;BME280;72625;53.700;19.958;2024-03-02T02:09:13;99831.59;;;8.57;82.06
41467;BME280;72625;53.700;19.958;2024-03-02T02:14:17;99827.98;;;8.52;81.89
41467;BME280;72625;53.700;19.958;2024-03-02T02:19:23;99828.06;;;8.52;82.01
41467;BME280;72625;53.700;19.958;2024-03-02T02:24:27;99818.42;;;8.44;82.13
41467;BME280;72625;53.700;19.958;2024-03-02T02:29:31;99815.81;;;8.38;82.14
41467;BME280;72625;53.700;19.958;2024-03-02T02:34:35;99807.52;;;8.30;82.15
41467;BME280;72625;53.700;19.958;2024-03-02T02:39:38;99800.17;;;8.21;82.35
41467;BME280;72625;53.700;19.958;2024-03-02T02:44:42;99798.05;;;8.14;82.54
41467;BME280;72625;53.700;19.958;2024-03-02T02:49:45;99802.02;;;8.04;82.73
41467;BME280;72625;53.700;19.958;2024-03-02T02:54:51;99799.70;;;8.00;83.15
41467;BME280;72625;53.700;19.958;2024-03-02T02:59:58;99789.76;;;7.96;83.23
41467;BME280;72625;53.700;19.958;2024-03-02T03:05:01;99787.90;;;7.92;83.69
41467;BME280;72625;53.700;19.958;2024-03-02T03:10:06;99792.55;;;7.89;83.85
41467;BME280;72625;53.700;19.958;2024-03-02T03:15:10;99803.31;;;7.87;83.51
41467;BME280;72625;53.700;19.958;2024-03-02T03:20:14;99810.45;;;7.84;83.39
41467;BME280;72625;53.700;19.958;2024-03-02T03:25:19;99811.61;;;7.83;83.52
41467;BME280;72625;53.700;19.958;2024-03-02T03:30:22;99812.52;;;7.80;83.43
41467;BME280;72625;53.700;19.958;2024-03-02T03:35:29;99807.16;;;7.76;83.59
41467;BME280;72625;53.700;19.958;2024-03-02T03:40:54;99805.59;;;7.72;83.72
41467;BME280;72625;53.700;19.958;2024-03-02T03:45:58;99798.64;;;7.68;84.17
41467;BME280;72625;53.700;19.958;2024-03-02T03:56:49;99797.76;;;7.70;84.16
41467;BME280;72625;53.700;19.958;2024-03-02T04:01:55;99801.52;;;7.74;84.09
41467;BME280;72625;53.700;19.958;2024-03-02T04:06:59;99803.99;;;7.80;84.34
41467;BME280;72625;53.700;19.958;2024-03-02T04:12:23;99799.34;;;7.84;84.19
41467;BME280;72625;53.700;19.958;2024-03-02T04:17:31;99802.91;;;7.89;83.95
41467;BME280;72625;53.700;19.958;2024-03-02T04:22:54;99810.77;;;7.94;84.11
41467;BME280;72625;53.700;19.958;2024-03-02T04:27:58;99815.17;;;7.94;84.11
41467;BME280;72625;53.700;19.958;2024-03-02T04:33:18;99813.20;;;8.00;83.83
41467;BME280;72625;53.700;19.958;2024-03-02T04:38:25;99811.65;;;8.03;83.89
41467;BME280;72625;53.700;19.958;2024-03-02T04:43:36;99818.14;;;8.05;83.94
41467;BME280;72625;53.700;19.958;2024-03-02T04:48:45;99822.13;;;8.03;83.68
41467;BME280;72625;53.700;19.958;2024-03-02T04:54:08;99824.08;;;8.04;83.87
41467;BME280;72625;53.700;19.958;2024-03-02T04:59:18;99827.10;;;8.06;83.72
41467;BME280;72625;53.700;19.958;2024-03-02T05:04:27;99827.63;;;8.09;84.13
41467;BME280;72625;53.700;19.958;2024-03-02T05:09:31;99834.66;;;8.07;83.93
41467;BME280;72625;53.700;19.958;2024-03-02T05:14:37;99829.85;;;8.08;83.99
41467;BME280;72625;53.700;19.958;2024-03-02T05:19:52;99833.66;;;8.07;84.10
41467;BME280;72625;53.700;19.958;2024-03-02T05:25:08;99835.96;;;8.04;84.10
41467;BME280;72625;53.700;19.958;2024-03-02T05:30:13;99830.05;;;7.96;84.87
41467;BME280;72625;53.700;19.958;2024-03-02T05:35:19;99838.20;;;7.90;84.61
41467;BME280;72625;53.700;19.958;2024-03-02T05:40:23;99839.30;;;7.87;84.96
41467;BME280;72625;53.700;19.958;2024-03-02T05:45:29;99836.05;;;7.82;85.00
41467;BME280;72625;53.700;19.958;2024-03-02T05:50:36;99843.02;;;7.80;85.25
41467;BME280;72625;53.700;19.958;2024-03-02T05:55:48;99839.69;;;7.77;85.15
41467;BME280;72625;53.700;19.958;2024-03-02T06:01:15;99835.96;;;7.76;85.41
41467;BME280;72625;53.700;19.958;2024-03-02T06:06:25;99836.14;;;7.73;85.28
41467;BME280;72625;53.700;19.958;2024-03-02T06:11:45;99840.47;;;7.73;85.95
41467;BME280;72625;53.700;19.958;2024-03-02T06:16:57;99845.54;;;7.77;85.50
41467;BME280;72625;53.700;19.958;2024-03-02T06:22:02;99846.95;;;7.85;85.44
41467;BME280;72625;53.700;19.958;2024-03-02T06:27:10;99857.79;;;7.92;85.45
41467;BME280;72625;53.700;19.958;2024-03-02T06:32:16;99864.81;;;7.98;85.38
41467;BME280;72625;53.700;19.958;2024-03-02T06:37:22;99874.08;;;8.03;85.46
41467;BME280;72625;53.700;19.958;2024-03-02T06:42:31;99879.05;;;8.09;85.30
41467;BME280;72625;53.700;19.958;2024-03-02T06:47:37;99882.17;;;8.12;85.37
41467;BME280;72625;53.700;19.958;2024-03-02T06:52:40;99891.66;;;8.18;85.15
41467;BME280;72625;53.700;19.958;2024-03-02T06:57:48;99895.13;;;8.27;85.23
41467;BME280;72625;53.700;19.958;2024-03-02T07:02:56;99893.06;;;8.30;85.06
41467;BME280;72625;53.700;19.958;2024-03-02T07:08:00;99894.63;;;8.36;85.20
41467;BME280;72625;53.700;19.958;2024-03-02T07:13:04;99893.14;;;8.41;85.18
41467;BME280;72625;53.700;19.958;2024-03-02T07:18:16;99900.64;;;8.38;85.12
41467;BME280;72625;53.700;19.958;2024-03-02T07:23:20;99905.00;;;8.44;85.06
41467;BME280;72625;53.700;19.958;2024-03-02T07:28:36;99897.32;;;8.46;85.04
41467;BME280;72625;53.700;19.958;2024-03-02T07:33:46;99899.12;;;8.48;84.86
41467;BME280;72625;53.700;19.958;2024-03-02T07:38:50;99900.59;;;8.47;84.98
41467;BME280;72625;53.700;19.958;2024-03-02T07:44:00;99905.84;;;8.52;84.92
41467;BME280;72625;53.700;19.958;2024-03-02T07:49:08;99903.64;;;8.62;84.93
41467;BME280;72625;53.700;19.958;2024-03-02T07:54:23;99900.95;;;8.69;84.72
41467;BME280;72625;53.700;19.958;2024-03-02T07:59:29;99903.91;;;8.78;84.69
41467;BME280;72625;53.700;19.958;2024-03-02T08:04:35;99904.67;;;8.89;84.49
41467;BME280;72625;53.700;19.958;2024-03-02T08:09:40;99911.32;;;8.99;84.36
41467;BME280;72625;53.700;19.958;2024-03-02T08:14:54;99910.04;;;9.10;84.29
41467;BME280;72625;53.700;19.958;2024-03-02T08:19:57;99914.25;;;9.12;83.98
41467;BME280;72625;53.700;19.958;2024-03-02T08:25:01;99916.07;;;9.07;83.81
41467;BME280;72625;53.700;19.958;2024-03-02T08:30:05;99917.23;;;9.17;83.92
41467;BME280;72625;53.700;19.958;2024-03-02T08:35:16;99923.10;;;9.23;83.60
41467;BME280;72625;53.700;19.958;2024-03-02T08:40:20;99921.67;;;9.45;83.94
41467;BME280;72625;53.700;19.958;2024-03-02T08:45:24;99928.77;;;9.58;83.42
41467;BME280;72625;53.700;19.958;2024-03-02T08:50:30;99936.25;;;9.67;83.00
41467;BME280;72625;53.700;19.958;2024-03-02T08:55:33;99934.77;;;9.60;82.49
41467;BME280;72625;53.700;19.958;2024-03-02T09:00:46;99939.99;;;9.67;82.92
41467;BME280;72625;53.700;19.958;2024-03-02T09:05:50;99944.46;;;9.75;82.73
41467;BME280;72625;53.700;19.958;2024-03-02T09:10:54;99950.58;;;9.82;82.54
41467;BME280;72625;53.700;19.958;2024-03-02T09:15:59;99950.23;;;9.86;82.20
41467;BME280;72625;53.700;19.958;2024-03-02T09:21:03;99947.41;;;9.96;82.35
41467;BME280;72625;53.700;19.958;2024-03-02T09:26:07;99952.48;;;10.13;82.05
41467;BME280;72625;53.700;19.958;2024-03-02T09:31:14;99952.58;;;10.13;81.81
41467;BME280;72625;53.700;19.958;2024-03-02T09:36:18;99946.90;;;10.34;81.68
41467;BME280;72625;53.700;19.958;2024-03-02T09:41:22;99943.77;;;10.59;81.70
41467;BME280;72625;53.700;19.958;2024-03-02T09:46:25;99943.88;;;10.75;80.96
41467;BME280;72625;53.700;19.958;2024-03-02T09:51:29;99945.73;;;10.80;81.04
41467;BME280;72625;53.700;19.958;2024-03-02T09:56:33;99947.95;;;10.78;79.77
41467;BME280;72625;53.700;19.958;2024-03-02T10:01:36;99952.20;;;10.93;80.15
41467;BME280;72625;53.700;19.958;2024-03-02T10:06:39;99948.19;;;10.94;80.14
41467;BME280;72625;53.700;19.958;2024-03-02T10:11:43;99948.53;;;11.14;80.70
41467;BME280;72625;53.700;19.958;2024-03-02T10:16:46;99950.84;;;11.25;79.22
41467;BME280;72625;53.700;19.958;2024-03-02T10:21:51;99952.77;;;11.37;79.62
41467;BME280;72625;53.700;19.958;2024-03-02T10:26:55;99952.30;;;11.56;79.29
41467;BME280;72625;53.700;19.958;2024-03-02T10:32:01;99950.72;;;11.70;79.07
41467;BME280;72625;53.700;19.958;2024-03-02T10:37:05;99947.51;;;11.99;79.30
41467;BME280;72625;53.700;19.958;2024-03-02T10:42:11;99944.22;;;12.10;78.66
41467;BME280;72625;53.700;19.958;2024-03-02T10:47:15;99946.86;;;11.95;77.08
41467;BME280;72625;53.700;19.958;2024-03-02T10:52:21;99948.04;;;11.91;76.40
41467;BME280;72625;53.700;19.958;2024-03-02T10:57:27;99943.39;;;11.95;77.13
41467;BME280;72625;53.700;19.958;2024-03-02T11:02:38;99938.52;;;11.98;77.58
41467;BME280;72625;53.700;19.958;2024-03-02T11:07:43;99929.39;;;12.06;77.51
41467;BME280;72625;53.700;19.958;2024-03-02T11:12:59;99927.59;;;12.26;77.97
41467;BME280;72625;53.700;19.958;2024-03-02T11:18:05;99931.45;;;12.48;76.56
41467;BME280;72625;53.700;19.958;2024-03-02T11:23:12;99928.52;;;12.51;76.72
41467;BME280;72625;53.700;19.958;2024-03-02T11:28:15;99926.42;;;12.59;77.13
41467;BME280;72625;53.700;19.958;2024-03-02T11:33:23;99924.23;;;12.58;76.28
41467;BME280;72625;53.700;19.958;2024-03-02T11:38:29;99921.14;;;12.51;75.94
41467;BME280;72625;53.700;19.958;2024-03-02T11:43:33;99922.14;;;12.40;74.48
41467;BME280;72625;53.700;19.958;2024-03-02T11:48:39;99918.89;;;12.22;74.23
41467;BME280;72625;53.700;19.958;2024-03-02T11:53:44;99911.88;;;12.30;75.28
41467;BME280;72625;53.700;19.958;2024-03-02T11:58:48;99909.57;;;12.27;74.94
41467;BME280;72625;53.700;19.958;2024-03-02T12:03:55;99902.73;;;12.15;74.64
41467;BME280;72625;53.700;19.958;2024-03-02T12:08:59;99895.04;;;12.11;74.69
41467;BME280;72625;53.700;19.958;2024-03-02T12:14:03;99888.65;;;12.11;74.93
41467;BME280;72625;53.700;19.958;2024-03-02T12:19:07;99888.52;;;12.10;74.78
41467;BME280;72625;53.700;19.958;2024-03-02T12:24:11;99890.20;;;12.13;74.58
41467;BME280;72625;53.700;19.958;2024-03-02T12:29:14;99883.65;;;12.15;74.17
41467;BME280;72625;53.700;19.958;2024-03-02T12:34:18;99892.77;;;12.21;74.05
41467;BME280;72625;53.700;19.958;2024-03-02T12:39:22;99893.48;;;12.15;74.08
41467;BME280;72625;53.700;19.958;2024-03-02T12:44:26;99883.23;;;12.14;73.97
41467;BME280;72625;53.700;19.958;2024-03-02T12:49:29;99886.42;;;12.16;74.14
41467;BME280;72625;53.700;19.958;2024-03-02T12:54:33;99890.91;;;12.25;73.82
41467;BME280;72625;53.700;19.958;2024-03-02T12:59:37;99885.72;;;12.30;74.22
41467;BME280;72625;53.700;19.958;2024-03-02T13:04:41;99883.79;;;12.36;74.02
41467;BME280;72625;53.700;19.958;2024-03-02T13:09:45;99889.79;;;12.35;73.89
41467;BME280;72625;53.700;19.958;2024-03-02T13:14:52;99887.53;;;12.34;73.73
41467;BME280;72625;53.700;19.958;2024-03-02T13:19:58;99889.84;;;12.31;73.30
41467;BME280;72625;53.700;19.958;2024-03-02T13:25:02;99899.28;;;12.31;73.24
41467;BME280;72625;53.700;19.958;2024-03-02T13:30:10;99896.40;;;12.33;73.64
41467;BME280;72625;53.700;19.958;2024-03-02T13:35:13;99898.30;;;12.33;74.00
41467;BME280;72625;53.700;19.958;2024-03-02T13:40:17;99890.96;;;12.40;73.83
41467;BME280;72625;53.700;19.958;2024-03-02T13:45:23;99894.93;;;12.48;74.02
41467;BME280;72625;53.700;19.958;2024-03-02T13:50:27;99891.97;;;12.52;73.80
41467;BME280;72625;53.700;19.958;2024-03-02T13:55:30;99893.54;;;12.41;73.50
41467;BME280;72625;53.700;19.958;2024-03-02T14:00:34;99889.52;;;12.27;73.49
41467;BME280;72625;53.700;19.958;2024-03-02T14:05:38;99891.60;;;12.20;73.58
41467;BME280;72625;53.700;19.958;2024-03-02T14:10:42;99893.93;;;12.15;73.66
41467;BME280;72625;53.700;19.958;2024-03-02T14:15:46;99897.67;;;12.06;73.44
41467;BME280;72625;53.700;19.958;2024-03-02T14:20:50;99896.23;;;11.95;73.25
41467;BME280;72625;53.700;19.958;2024-03-02T14:26:00;99891.41;;;11.86;73.37
41467;BME280;72625;53.700;19.958;2024-03-02T14:31:04;99888.61;;;11.77;73.59
41467;BME280;72625;53.700;19.958;2024-03-02T14:36:08;99884.39;;;11.67;73.78
41467;BME280;72625;53.700;19.958;2024-03-02T14:41:11;99884.48;;;11.59;73.88
41467;BME280;72625;53.700;19.958;2024-03-02T14:46:16;99888.77;;;11.55;74.03
41467;BME280;72625;53.700;19.958;2024-03-02T14:51:20;99889.13;;;11.45;74.11
41467;BME280;72625;53.700;19.958;2024-03-02T14:56:26;99880.23;;;11.40;74.21
41467;BME280;72625;53.700;19.958;2024-03-02T15:01:31;99879.02;;;11.34;74.54
41467;BME280;72625;53.700;19.958;2024-03-02T15:06:35;99877.09;;;11.27;74.56
41467;BME280;72625;53.700;19.958;2024-03-02T15:11:39;99866.94;;;11.26;74.67
41467;BME280;72625;53.700;19.958;2024-03-02T15:16:43;99869.38;;;11.27;74.80
41467;BME280;72625;53.700;19.958;2024-03-02T15:21:47;99874.65;;;11.25;74.95
41467;BME280;72625;53.700;19.958;2024-03-02T15:26:53;99876.23;;;11.23;75.07
41467;BME280;72625;53.700;19.958;2024-03-02T15:31:57;99873.17;;;11.24;75.32
41467;BME280;72625;53.700;19.958;2024-03-02T15:37:01;99877.75;;;11.18;75.46
41467;BME280;72625;53.700;19.958;2024-03-02T15:42:07;99882.84;;;11.11;75.52
41467;BME280;72625;53.700;19.958;2024-03-02T15:47:11;99878.69;;;11.04;75.51
41467;BME280;72625;53.700;19.958;2024-03-02T15:52:32;99874.48;;;10.92;75.97
41467;BME280;72625;53.700;19.958;2024-03-02T15:57:36;99877.65;;;10.86;75.76
41467;BME280;72625;53.700;19.958;2024-03-02T16:02:40;99879.85;;;10.74;76.88
41467;BME280;72625;53.700;19.958;2024-03-02T16:07:43;99876.80;;;10.72;76.76
41467;BME280;72625;53.700;19.958;2024-03-02T16:12:47;99878.36;;;10.70;76.88
41467;BME280;72625;53.700;19.958;2024-03-02T16:17:51;99879.45;;;10.62;77.11
41467;BME280;72625;53.700;19.958;2024-03-02T16:23:01;99880.11;;;10.60;77.27
41467;BME280;72625;53.700;19.958;2024-03-02T16:28:07;99879.36;;;10.55;77.42
41467;BME280;72625;53.700;19.958;2024-03-02T16:33:15;99888.56;;;10.48;77.68
41467;BME280;72625;53.700;19.958;2024-03-02T16:38:19;99882.58;;;10.46;77.91
41467;BME280;72625;53.700;19.958;2024-03-02T16:43:25;99886.95;;;10.37;78.38
41467;BME280;72625;53.700;19.958;2024-03-02T16:48:29;99883.79;;;10.27;78.94
41467;BME280;72625;53.700;19.958;2024-03-02T16:53:39;99887.33;;;10.22;79.05
41467;BME280;72625;53.700;19.958;2024-03-02T16:58:43;99889.46;;;10.19;79.25
41467;BME280;72625;53.700;19.958;2024-03-02T17:03:51;99898.05;;;10.15;79.38
41467;BME280;72625;53.700;19.958;2024-03-02T17:08:54;99898.34;;;10.11;79.47
41467;BME280;72625;53.700;19.958;2024-03-02T17:13:58;99898.10;;;10.11;79.32
41467;BME280;72625;53.700;19.958;2024-03-02T17:19:21;99900.99;;;10.08;79.14
41467;BME280;72625;53.700;19.958;2024-03-02T17:24:30;99900.02;;;10.07;79.33
41467;BME280;72625;53.700;19.958;2024-03-02T17:29:34;99900.59;;;10.04;79.29
41467;BME280;72625;53.700;19.958;2024-03-02T17:34:48;99904.00;;;10.02;79.38
41467;BME280;72625;53.700;19.958;2024-03-02T17:39:52;99901.06;;;10.01;79.65
41467;BME280;72625;53.700;19.958;2024-03-02T17:45:01;99899.59;;;9.96;79.70
41467;BME280;72625;53.700;19.958;2024-03-02T17:55:29;99906.45;;;9.88;79.84
41467;BME280;72625;53.700;19.958;2024-03-02T18:00:34;99913.22;;;9.84;79.76
41467;BME280;72625;53.700;19.958;2024-03-02T18:05:40;99920.34;;;9.85;79.81
41467;BME280;72625;53.700;19.958;2024-03-02T18:10:44;99926.55;;;9.85;79.82
41467;BME280;72625;53.700;19.958;2024-03-02T18:15:59;99929.86;;;9.80;79.95
41467;BME280;72625;53.700;19.958;2024-03-02T18:21:03;99934.92;;;9.74;80.08
41467;BME280;72625;53.700;19.958;2024-03-02T18:26:07;99944.39;;;9.68;80.26
41467;BME280;72625;53.700;19.958;2024-03-02T18:31:13;99945.29;;;9.66;80.26
41467;BME280;72625;53.700;19.958;2024-03-02T18:36:17;99942.91;;;9.65;80.05
41467;BME280;72625;53.700;19.958;2024-03-02T18:41:24;99942.52;;;9.62;80.05
41467;BME280;72625;53.700;19.958;2024-03-02T18:46:48;99946.15;;;9.58;80.04
41467;BME280;72625;53.700;19.958;2024-03-02T18:51:52;99950.67;;;9.55;80.17
41467;BME280;72625;53.700;19.958;2024-03-02T18:56:55;99949.73;;;9.49;80.04
41467;BME280;72625;53.700;19.958;2024-03-02T19:02:02;99948.70;;;9.45;80.18
41467;BME280;72625;53.700;19.958;2024-03-02T19:07:06;99943.28;;;9.38;80.23
41467;BME280;72625;53.700;19.958;2024-03-02T19:12:10;99942.84;;;9.34;80.31
41467;BME280;72625;53.700;19.958;2024-03-02T19:17:13;99937.06;;;9.28;80.33
41467;BME280;72625;53.700;19.958;2024-03-02T19:22:17;99934.64;;;9.23;80.56
41467;BME280;72625;53.700;19.958;2024-03-02T19:27:23;99935.63;;;9.19;80.66
41467;BME280;72625;53.700;19.958;2024-03-02T19:32:52;99936.39;;;9.10;80.64
41467;BME280;72625;53.700;19.958;2024-03-02T19:37:56;99938.45;;;9.03;80.80
41467;BME280;72625;53.700;19.958;2024-03-02T19:42:59;99937.56;;;8.93;81.09
41467;BME280;72625;53.700;19.958;2024-03-02T19:48:03;99939.40;;;8.86;81.10
41467;BME280;72625;53.700;19.958;2024-03-02T19:53:16;99937.80;;;8.80;81.28
41467;BME280;72625;53.700;19.958;2024-03-02T19:58:22;99937.60;;;8.74;81.41
41467;BME280;72625;53.700;19.958;2024-03-02T20:03:28;99941.53;;;8.69;81.69
41467;BME280;72625;53.700;19.958;2024-03-02T20:08:37;99941.08;;;8.68;81.50
41467;BME280;72625;53.700;19.958;2024-03-02T20:13:44;99944.88;;;8.67;81.12
41467;BME280;72625;53.700;19.958;2024-03-02T20:18:47;99945.43;;;8.64;81.68
41467;BME280;72625;53.700;19.958;2024-03-02T20:23:51;99947.79;;;8.64;81.65
41467;BME280;72625;53.700;19.958;2024-03-02T20:29:04;99946.92;;;8.63;81.85
41467;BME280;72625;53.700;19.958;2024-03-02T20:34:11;99949.79;;;8.61;81.56
41467;BME280;72625;53.700;19.958;2024-03-02T20:39:30;99944.79;;;8.55;81.81
41467;BME280;72625;53.700;19.958;2024-03-02T20:44:34;99948.31;;;8.53;81.84
41467;BME280;72625;53.700;19.958;2024-03-02T20:49:37;99943.06;;;8.49;82.00
41467;BME280;72625;53.700;19.958;2024-03-02T20:54:45;99942.66;;;8.46;81.85
41467;BME280;72625;53.700;19.958;2024-03-02T20:59:49;99942.39;;;8.45;82.09
41467;BME280;72625;53.700;19.958;2024-03-02T21:04:53;99944.81;;;8.49;81.66
41467;BME280;72625;53.700;19.958;2024-03-02T21:09:56;99948.71;;;8.51;81.70
41467;BME280;72625;53.700;19.958;2024-03-02T21:15:00;99948.13;;;8.50;81.66
41467;BME280;72625;53.700;19.958;2024-03-02T21:20:10;99946.88;;;8.50;81.72
41467;BME280;72625;53.700;19.958;2024-03-02T21:25:24;99941.36;;;8.49;81.79
41467;BME280;72625;53.700;19.958;2024-03-02T21:30:30;99940.35;;;8.52;81.67
41467;BME280;72625;53.700;19.958;2024-03-02T21:35:34;99938.34;;;8.51;81.56
41467;BME280;72625;53.700;19.958;2024-03-02T21:40:45;99941.12;;;8.51;81.39
41467;BME280;72625;53.700;19.958;2024-03-02T21:46:02;99939.13;;;8.50;81.33
41467;BME280;72625;53.700;19.958;2024-03-02T21:51:06;99936.17;;;8.49;81.38
41467;BME280;72625;53.700;19.958;2024-03-02T21:56:09;99939.23;;;8.47;81.39
41467;BME280;72625;53.700;19.958;2024-03-02T22:01:18;99935.08;;;8.47;81.37
41467;BME280;72625;53.700;19.958;2024-03-02T22:06:23;99938.08;;;8.41;81.04
41467;BME280;72625;53.700;19.958;2024-03-02T22:11:50;99932.84;;;8.41;81.24
41467;BME280;72625;53.700;19.958;2024-03-02T22:17:33;99939.05;;;8.36;81.14
41467;BME280;72625;53.700;19.958;2024-03-02T22:28:04;99935.02;;;8.22;81.45
41467;BME280;72625;53.700;19.958;2024-03-02T22:33:28;99931.42;;;8.16;81.27
41467;BME280;72625;53.700;19.958;2024-03-02T22:38:54;99924.96;;;8.08;81.12
41467;BME280;72625;53.700;19.958;2024-03-02T22:44:25;99923.66;;;8.08;81.21
41467;BME280;72625;53.700;19.958;2024-03-02T22:49:43;99920.98;;;8.04;81.14
41467;BME280;72625;53.700;19.958;2024-03-02T22:55:11;99924.14;;;7.96;81.24
41467;BME280;72625;53.700;19.958;2024-03-02T23:00:34;99924.95;;;7.95;81.37
41467;BME280;72625;53.700;19.958;2024-03-02T23:06:10;99919.98;;;7.91;81.54
41467;BME280;72625;53.700;19.958;2024-03-02T23:11:34;99916.49;;;7.89;81.29
41467;BME280;72625;53.700;19.958;2024-03-02T23:17:02;99914.55;;;7.91;81.15
41467;BME280;72625;53.700;19.958;2024-03-02T23:22:09;99915.88;;;7.97;80.70
41467;BME280;72625;53.700;19.958;2024-03-02T23:27:34;99911.88;;;7.95;80.73
41467;BME280;72625;53.700;19.958;2024-03-02T23:32:40;99912.97;;;7.93;80.61
41467;BME280;72625;53.700;19.958;2024-03-02T23:43:16;99904.80;;;7.90;80.71
41467;BME280;72625;53.700;19.958;2024-03-02T23:48:51;99901.25;;;7.88;80.68
41467;BME280;72625;53.700;19.958;2024-03-02T23:54:24;99900.95;;;7.87;80.60
